sensor_id;sensor_type;location;lat;lon;timestamp;temperature;humidity
23873;DHT22;42884;50.718;4.630;2023-01-10T00:02:17;6.20;99.90
23873;DHT22;42884;50.718;4.630;2023-01-10T00:04:42;6.20;99.90
23873;DHT22;42884;50.718;4.630;2023-01-10T00:07:08;6.20;99.90
23873;DHT22;42884;50.718;4.630;2023-01-10T00:09:33;6.30;99.90
23873;DHT22;42884;50.718;4.630;2023-01-10T00:11:59;6.40;99.90
23873;DHT22;42884;50.718;4.630;2023-01-10T00:14:43;6.40;99.90
23873;DHT22;42884;50.718;4.630;2023-01-10T00:17:09;6.40;99.90
23873;DHT22;42884;50.718;4.630;2023-01-10T00:19:34;6.40;99.90
23873;DHT22;42884;50.718;4.630;2023-01-10T00:22:00;6.50;99.90
23873;DHT22;42884;50.718;4.630;2023-01-10T00:24:30;6.60;99.90
23873;DHT22;42884;50.718;4.630;2023-01-10T00:26:55;6.60;99.90
23873;DHT22;42884;50.718;4.630;2023-01-10T00:29:27;6.60;99.90
23873;DHT22;42884;50.718;4.630;2023-01-10T00:31:53;6.60;99.90
23873;DHT22;42884;50.718;4.630;2023-01-10T00:34:19;6.70;99.90
23873;DHT22;42884;50.718;4.630;2023-01-10T00:36:45;6.80;99.90
23873;DHT22;42884;50.718;4.630;2023-01-10T00:39:12;6.80;99.90
23873;DHT22;42884;50.718;4.630;2023-01-10T00:41:39;6.80;99.90
23873;DHT22;42884;50.718;4.630;2023-01-10T00:44:30;6.90;99.90
23873;DHT22;42884;50.718;4.630;2023-01-10T00:46:56;6.90;99.90
23873;DHT22;42884;50.718;4.630;2023-01-10T00:49:22;6.80;99.90
23873;DHT22;42884;50.718;4.630;2023-01-10T00:51:47;6.80;99.90
23873;DHT22;42884;50.718;4.630;2023-01-10T00:54:13;6.70;99.90
23873;DHT22;42884;50.718;4.630;2023-01-10T00:56:39;6.70;99.90
23873;DHT22;42884;50.718;4.630;2023-01-10T00:59:05;6.70;99.90
23873;DHT22;42884;50.718;4.630;2023-01-10T01:01:31;6.80;99.90
23873;DHT22;42884;50.718;4.630;2023-01-10T01:03:57;6.70;99.90
23873;DHT22;42884;50.718;4.630;2023-01-10T01:06:24;6.60;99.90
23873;DHT22;42884;50.718;4.630;2023-01-10T01:08:49;6.60;99.90
23873;DHT22;42884;50.718;4.630;2023-01-10T01:11:15;6.60;99.90
23873;DHT22;42884;50.718;4.630;2023-01-10T01:13:40;6.60;99.90
23873;DHT22;42884;50.718;4.630;2023-01-10T01:16:06;6.50;99.90
23873;DHT22;42884;50.718;4.630;2023-01-10T01:18:32;6.60;99.90
23873;DHT22;42884;50.718;4.630;2023-01-10T01:20:58;6.60;99.90
23873;DHT22;42884;50.718;4.630;2023-01-10T01:23:28;6.50;99.90
23873;DHT22;42884;50.718;4.630;2023-01-10T01:25:54;6.80;99.90
23873;DHT22;42884;50.718;4.630;2023-01-10T01:28:20;6.80;99.90
23873;DHT22;42884;50.718;4.630;2023-01-10T01:30:49;6.80;99.90
23873;DHT22;42884;50.718;4.630;2023-01-10T01:33:14;6.90;99.90
23873;DHT22;42884;50.718;4.630;2023-01-10T01:35:41;6.80;99.90
23873;DHT22;42884;50.718;4.630;2023-01-10T01:38:07;6.90;99.90
23873;DHT22;42884;50.718;4.630;2023-01-10T01:40:32;7.00;99.90
23873;DHT22;42884;50.718;4.630;2023-01-10T01:42:58;7.10;99.90
23873;DHT22;42884;50.718;4.630;2023-01-10T01:52:56;7.00;99.90
23873;DHT22;42884;50.718;4.630;2023-01-10T01:55:23;6.90;99.90
23873;DHT22;42884;50.718;4.630;2023-01-10T01:57:49;6.90;99.90
23873;DHT22;42884;50.718;4.630;2023-01-10T02:00:16;6.90;99.90
23873;DHT22;42884;50.718;4.630;2023-01-10T02:02:43;6.80;99.90
23873;DHT22;42884;50.718;4.630;2023-01-10T02:05:11;6.80;99.90
23873;DHT22;42884;50.718;4.630;2023-01-10T02:07:39;6.80;99.90
23873;DHT22;42884;50.718;4.630;2023-01-10T02:10:20;6.70;99.90
23873;DHT22;42884;50.718;4.630;2023-01-10T02:12:49;6.70;99.90
23873;DHT22;42884;50.718;4.630;2023-01-10T02:15:15;6.60;99.90
23873;DHT22;42884;50.718;4.630;2023-01-10T02:17:40;6.60;99.90
23873;DHT22;42884;50.718;4.630;2023-01-10T02:20:09;6.70;99.90
23873;DHT22;42884;50.718;4.630;2023-01-10T02:25:24;6.70;99.90
23873;DHT22;42884;50.718;4.630;2023-01-10T02:32:56;6.40;99.90
23873;DHT22;42884;50.718;4.630;2023-01-10T02:43:08;6.30;99.90
23873;DHT22;42884;50.718;4.630;2023-01-10T02:45:35;6.20;99.90
23873;DHT22;42884;50.718;4.630;2023-01-10T02:48:02;6.30;99.90
23873;DHT22;42884;50.718;4.630;2023-01-10T02:53:02;6.30;99.90
23873;DHT22;42884;50.718;4.630;2023-01-10T03:06:11;6.00;99.90
23873;DHT22;42884;50.718;4.630;2023-01-10T03:08:42;6.00;99.90
23873;DHT22;42884;50.718;4.630;2023-01-10T03:11:12;6.00;99.90
23873;DHT22;42884;50.718;4.630;2023-01-10T03:13:52;5.90;99.90
23873;DHT22;42884;50.718;4.630;2023-01-10T03:16:22;5.90;99.90
23873;DHT22;42884;50.718;4.630;2023-01-10T03:18:56;5.90;99.90
23873;DHT22;42884;50.718;4.630;2023-01-10T03:21:25;5.80;99.90
23873;DHT22;42884;50.718;4.630;2023-01-10T03:23:52;5.90;99.90
23873;DHT22;42884;50.718;4.630;2023-01-10T03:26:21;5.80;99.90
23873;DHT22;42884;50.718;4.630;2023-01-10T03:28:51;5.80;99.90
23873;DHT22;42884;50.718;4.630;2023-01-10T03:31:27;5.80;99.90
23873;DHT22;42884;50.718;4.630;2023-01-10T03:33:54;5.80;99.90
23873;DHT22;42884;50.718;4.630;2023-01-10T03:36:34;5.70;99.90
23873;DHT22;42884;50.718;4.630;2023-01-10T03:39:48;5.60;99.90
23873;DHT22;42884;50.718;4.630;2023-01-10T03:49:55;5.60;99.90
23873;DHT22;42884;50.718;4.630;2023-01-10T03:52:22;5.40;99.90
23873;DHT22;42884;50.718;4.630;2023-01-10T03:54:49;5.40;99.90
23873;DHT22;42884;50.718;4.630;2023-01-10T03:57:21;5.40;99.90
23873;DHT22;42884;50.718;4.630;2023-01-10T03:59:48;5.40;99.90
23873;DHT22;42884;50.718;4.630;2023-01-10T04:02:14;5.40;99.90
23873;DHT22;42884;50.718;4.630;2023-01-10T04:04:40;5.40;99.90
23873;DHT22;42884;50.718;4.630;2023-01-10T04:07:06;5.40;99.90
23873;DHT22;42884;50.718;4.630;2023-01-10T04:09:31;5.30;99.90
23873;DHT22;42884;50.718;4.630;2023-01-10T04:11:57;5.20;99.90
23873;DHT22;42884;50.718;4.630;2023-01-10T04:14:22;5.20;99.90
23873;DHT22;42884;50.718;4.630;2023-01-10T04:16:48;5.30;99.90
23873;DHT22;42884;50.718;4.630;2023-01-10T04:19:13;5.40;99.90
23873;DHT22;42884;50.718;4.630;2023-01-10T04:21:39;5.30;99.90
23873;DHT22;42884;50.718;4.630;2023-01-10T04:24:05;5.30;99.90
23873;DHT22;42884;50.718;4.630;2023-01-10T04:26:30;5.40;99.90
23873;DHT22;42884;50.718;4.630;2023-01-10T04:28:56;5.40;99.90
23873;DHT22;42884;50.718;4.630;2023-01-10T04:31:22;5.40;99.90
23873;DHT22;42884;50.718;4.630;2023-01-10T04:33:47;5.40;99.90
23873;DHT22;42884;50.718;4.630;2023-01-10T04:36:13;5.40;99.90
23873;DHT22;42884;50.718;4.630;2023-01-10T04:38:39;5.40;99.90
23873;DHT22;42884;50.718;4.630;2023-01-10T04:41:04;5.50;99.90
23873;DHT22;42884;50.718;4.630;2023-01-10T04:43:30;5.60;99.90
23873;DHT22;42884;50.718;4.630;2023-01-10T04:45:55;5.60;99.90
23873;DHT22;42884;50.718;4.630;2023-01-10T04:48:21;5.60;99.90
23873;DHT22;42884;50.718;4.630;2023-01-10T04:50:50;5.80;99.90
23873;DHT22;42884;50.718;4.630;2023-01-10T04:53:16;5.80;99.90
23873;DHT22;42884;50.718;4.630;2023-01-10T04:55:42;5.80;99.90
23873;DHT22;42884;50.718;4.630;2023-01-10T04:58:07;5.60;99.90
23873;DHT22;42884;50.718;4.630;2023-01-10T05:00:33;5.50;99.90
23873;DHT22;42884;50.718;4.630;2023-01-10T05:02:59;5.50;99.90
23873;DHT22;42884;50.718;4.630;2023-01-10T05:05:24;5.50;99.90
23873;DHT22;42884;50.718;4.630;2023-01-10T05:07:50;5.50;99.90
23873;DHT22;42884;50.718;4.630;2023-01-10T05:10:16;5.60;99.90
23873;DHT22;42884;50.718;4.630;2023-01-10T05:12:41;5.50;99.90
23873;DHT22;42884;50.718;4.630;2023-01-10T05:15:07;5.50;99.90
23873;DHT22;42884;50.718;4.630;2023-01-10T05:17:33;5.50;99.90
23873;DHT22;42884;50.718;4.630;2023-01-10T05:19:58;5.50;99.90
23873;DHT22;42884;50.718;4.630;2023-01-10T05:22:24;5.50;99.90
23873;DHT22;42884;50.718;4.630;2023-01-10T05:24:50;5.50;99.90
23873;DHT22;42884;50.718;4.630;2023-01-10T05:27:15;5.50;99.90
23873;DHT22;42884;50.718;4.630;2023-01-10T05:29:41;5.50;99.90
23873;DHT22;42884;50.718;4.630;2023-01-10T05:32:07;5.50;99.90
23873;DHT22;42884;50.718;4.630;2023-01-10T05:34:32;5.50;99.90
23873;DHT22;42884;50.718;4.630;2023-01-10T05:36:58;5.40;99.90
23873;DHT22;42884;50.718;4.630;2023-01-10T05:39:24;5.30;99.90
23873;DHT22;42884;50.718;4.630;2023-01-10T05:41:49;5.30;99.90
23873;DHT22;42884;50.718;4.630;2023-01-10T05:44:15;5.30;99.90
23873;DHT22;42884;50.718;4.630;2023-01-10T05:46:40;5.30;99.90
23873;DHT22;42884;50.718;4.630;2023-01-10T05:49:06;5.30;99.90
23873;DHT22;42884;50.718;4.630;2023-01-10T05:51:31;5.30;99.90
23873;DHT22;42884;50.718;4.630;2023-01-10T05:53:57;5.20;99.90
23873;DHT22;42884;50.718;4.630;2023-01-10T05:56:23;5.10;99.90
23873;DHT22;42884;50.718;4.630;2023-01-10T05:58:49;5.20;99.90
23873;DHT22;42884;50.718;4.630;2023-01-10T06:01:14;5.30;99.90
23873;DHT22;42884;50.718;4.630;2023-01-10T06:03:40;5.30;99.90
23873;DHT22;42884;50.718;4.630;2023-01-10T06:06:06;5.30;99.90
23873;DHT22;42884;50.718;4.630;2023-01-10T06:08:32;5.30;99.90
23873;DHT22;42884;50.718;4.630;2023-01-10T06:10:57;5.20;99.90
23873;DHT22;42884;50.718;4.630;2023-01-10T06:13:23;5.20;99.90
23873;DHT22;42884;50.718;4.630;2023-01-10T06:15:48;5.10;99.90
23873;DHT22;42884;50.718;4.630;2023-01-10T06:18:14;5.10;99.90
23873;DHT22;42884;50.718;4.630;2023-01-10T06:20:41;5.20;99.90
23873;DHT22;42884;50.718;4.630;2023-01-10T06:23:07;5.20;99.90
23873;DHT22;42884;50.718;4.630;2023-01-10T06:25:33;5.30;99.90
23873;DHT22;42884;50.718;4.630;2023-01-10T06:28:01;5.20;99.90
23873;DHT22;42884;50.718;4.630;2023-01-10T06:30:26;5.20;99.90
23873;DHT22;42884;50.718;4.630;2023-01-10T06:32:52;5.20;99.90
23873;DHT22;42884;50.718;4.630;2023-01-10T06:35:18;5.10;99.90
23873;DHT22;42884;50.718;4.630;2023-01-10T06:37:43;5.10;99.90
23873;DHT22;42884;50.718;4.630;2023-01-10T06:40:09;5.00;99.90
23873;DHT22;42884;50.718;4.630;2023-01-10T06:42:35;5.10;99.90
23873;DHT22;42884;50.718;4.630;2023-01-10T06:45:01;5.10;99.90
23873;DHT22;42884;50.718;4.630;2023-01-10T06:47:26;5.00;99.90
23873;DHT22;42884;50.718;4.630;2023-01-10T06:49:52;4.90;99.90
23873;DHT22;42884;50.718;4.630;2023-01-10T06:52:18;5.00;99.90
23873;DHT22;42884;50.718;4.630;2023-01-10T06:54:43;4.90;99.90
23873;DHT22;42884;50.718;4.630;2023-01-10T06:57:09;5.00;99.90
23873;DHT22;42884;50.718;4.630;2023-01-10T06:59:34;5.00;99.90
23873;DHT22;42884;50.718;4.630;2023-01-10T07:02:00;5.00;99.90
23873;DHT22;42884;50.718;4.630;2023-01-10T07:04:26;5.10;99.90
23873;DHT22;42884;50.718;4.630;2023-01-10T07:06:51;5.10;99.90
23873;DHT22;42884;50.718;4.630;2023-01-10T07:09:17;5.00;99.90
23873;DHT22;42884;50.718;4.630;2023-01-10T07:11:43;5.00;99.90
23873;DHT22;42884;50.718;4.630;2023-01-10T07:14:08;5.10;99.90
23873;DHT22;42884;50.718;4.630;2023-01-10T07:16:34;5.00;99.90
23873;DHT22;42884;50.718;4.630;2023-01-10T07:19:00;5.10;99.90
23873;DHT22;42884;50.718;4.630;2023-01-10T07:21:26;5.00;99.90
23873;DHT22;42884;50.718;4.630;2023-01-10T07:23:52;5.10;99.90
23873;DHT22;42884;50.718;4.630;2023-01-10T07:26:18;5.10;99.90
23873;DHT22;42884;50.718;4.630;2023-01-10T07:28:44;5.10;99.90
23873;DHT22;42884;50.718;4.630;2023-01-10T07:31:09;5.10;99.90
23873;DHT22;42884;50.718;4.630;2023-01-10T07:33:35;5.10;99.90
23873;DHT22;42884;50.718;4.630;2023-01-10T07:36:01;5.20;99.90
23873;DHT22;42884;50.718;4.630;2023-01-10T07:38:27;5.10;99.90
23873;DHT22;42884;50.718;4.630;2023-01-10T07:40:53;5.00;99.90
23873;DHT22;42884;50.718;4.630;2023-01-10T07:43:19;5.00;99.90
23873;DHT22;42884;50.718;4.630;2023-01-10T07:45:44;5.00;99.90
23873;DHT22;42884;50.718;4.630;2023-01-10T07:48:10;5.00;99.90
23873;DHT22;42884;50.718;4.630;2023-01-10T07:50:36;5.00;99.90
23873;DHT22;42884;50.718;4.630;2023-01-10T07:53:02;5.00;99.90
23873;DHT22;42884;50.718;4.630;2023-01-10T07:55:29;5.10;99.90
23873;DHT22;42884;50.718;4.630;2023-01-10T07:57:54;5.10;99.90
23873;DHT22;42884;50.718;4.630;2023-01-10T08:00:20;5.20;99.90
23873;DHT22;42884;50.718;4.630;2023-01-10T08:02:46;5.10;99.90
23873;DHT22;42884;50.718;4.630;2023-01-10T08:05:12;5.20;99.90
23873;DHT22;42884;50.718;4.630;2023-01-10T08:07:38;5.30;99.90
23873;DHT22;42884;50.718;4.630;2023-01-10T08:10:04;5.30;99.90
23873;DHT22;42884;50.718;4.630;2023-01-10T08:12:30;5.40;99.90
23873;DHT22;42884;50.718;4.630;2023-01-10T08:14:56;5.50;99.90
23873;DHT22;42884;50.718;4.630;2023-01-10T08:17:22;5.60;99.90
23873;DHT22;42884;50.718;4.630;2023-01-10T08:19:48;5.60;99.90
23873;DHT22;42884;50.718;4.630;2023-01-10T08:22:13;5.60;99.90
23873;DHT22;42884;50.718;4.630;2023-01-10T08:24:39;5.70;99.90
23873;DHT22;42884;50.718;4.630;2023-01-10T08:27:05;5.70;99.90
23873;DHT22;42884;50.718;4.630;2023-01-10T08:29:30;5.70;99.90
23873;DHT22;42884;50.718;4.630;2023-01-10T08:31:56;5.90;99.90
23873;DHT22;42884;50.718;4.630;2023-01-10T08:34:21;5.90;99.90
23873;DHT22;42884;50.718;4.630;2023-01-10T08:36:50;5.90;99.90
23873;DHT22;42884;50.718;4.630;2023-01-10T08:39:17;5.90;99.90
23873;DHT22;42884;50.718;4.630;2023-01-10T08:41:42;6.00;99.90
23873;DHT22;42884;50.718;4.630;2023-01-10T08:44:08;6.10;99.90
23873;DHT22;42884;50.718;4.630;2023-01-10T08:46:36;6.10;99.90
23873;DHT22;42884;50.718;4.630;2023-01-10T08:49:02;6.10;99.90
23873;DHT22;42884;50.718;4.630;2023-01-10T08:51:30;6.30;99.90
23873;DHT22;42884;50.718;4.630;2023-01-10T08:53:55;6.30;99.90
23873;DHT22;42884;50.718;4.630;2023-01-10T08:56:21;6.50;99.90
23873;DHT22;42884;50.718;4.630;2023-01-10T08:58:46;6.60;99.90
23873;DHT22;42884;50.718;4.630;2023-01-10T09:01:12;6.60;99.90
23873;DHT22;42884;50.718;4.630;2023-01-10T09:03:38;6.60;99.90
23873;DHT22;42884;50.718;4.630;2023-01-10T09:06:04;6.60;99.90
23873;DHT22;42884;50.718;4.630;2023-01-10T09:08:30;6.50;99.90
23873;DHT22;42884;50.718;4.630;2023-01-10T09:10:59;6.50;99.90
23873;DHT22;42884;50.718;4.630;2023-01-10T09:13:25;6.60;99.90
23873;DHT22;42884;50.718;4.630;2023-01-10T09:15:50;6.60;99.90
23873;DHT22;42884;50.718;4.630;2023-01-10T09:18:16;6.70;99.90
23873;DHT22;42884;50.718;4.630;2023-01-10T09:20:42;6.70;99.90
23873;DHT22;42884;50.718;4.630;2023-01-10T09:23:09;6.70;99.90
23873;DHT22;42884;50.718;4.630;2023-01-10T09:25:35;6.80;99.90
23873;DHT22;42884;50.718;4.630;2023-01-10T09:28:01;6.80;99.90
23873;DHT22;42884;50.718;4.630;2023-01-10T09:30:28;7.00;99.90
23873;DHT22;42884;50.718;4.630;2023-01-10T09:32:54;7.00;99.90
23873;DHT22;42884;50.718;4.630;2023-01-10T09:35:21;7.00;99.90
23873;DHT22;42884;50.718;4.630;2023-01-10T09:37:47;7.00;99.90
23873;DHT22;42884;50.718;4.630;2023-01-10T09:40:16;6.90;99.90
23873;DHT22;42884;50.718;4.630;2023-01-10T09:45:27;7.20;99.90
23873;DHT22;42884;50.718;4.630;2023-01-10T09:48:07;7.40;99.90
23873;DHT22;42884;50.718;4.630;2023-01-10T09:53:18;7.50;99.90
23873;DHT22;42884;50.718;4.630;2023-01-10T09:55:45;7.40;99.90
23873;DHT22;42884;50.718;4.630;2023-01-10T09:58:13;7.40;99.90
23873;DHT22;42884;50.718;4.630;2023-01-10T10:00:46;7.60;99.90
23873;DHT22;42884;50.718;4.630;2023-01-10T10:05:42;7.60;99.90
23873;DHT22;42884;50.718;4.630;2023-01-10T10:08:10;7.50;99.90
23873;DHT22;42884;50.718;4.630;2023-01-10T10:21:45;7.40;99.90
23873;DHT22;42884;50.718;4.630;2023-01-10T10:32:16;7.70;99.90
23873;DHT22;42884;50.718;4.630;2023-01-10T10:34:47;7.80;99.90
23873;DHT22;42884;50.718;4.630;2023-01-10T10:37:26;7.90;99.90
23873;DHT22;42884;50.718;4.630;2023-01-10T10:42:34;8.00;99.90
23873;DHT22;42884;50.718;4.630;2023-01-10T10:45:01;8.00;99.90
23873;DHT22;42884;50.718;4.630;2023-01-10T10:47:33;7.80;99.90
23873;DHT22;42884;50.718;4.630;2023-01-10T10:52:40;8.00;99.90
23873;DHT22;42884;50.718;4.630;2023-01-10T10:55:11;8.10;99.90
23873;DHT22;42884;50.718;4.630;2023-01-10T10:57:36;7.90;99.90
23873;DHT22;42884;50.718;4.630;2023-01-10T11:00:03;7.90;99.90
23873;DHT22;42884;50.718;4.630;2023-01-10T11:02:31;7.80;99.90
23873;DHT22;42884;50.718;4.630;2023-01-10T11:05:12;8.00;99.90
23873;DHT22;42884;50.718;4.630;2023-01-10T11:07:38;7.90;99.90
23873;DHT22;42884;50.718;4.630;2023-01-10T11:10:09;7.90;99.90
23873;DHT22;42884;50.718;4.630;2023-01-10T11:12:45;7.90;99.90
23873;DHT22;42884;50.718;4.630;2023-01-10T11:18:08;8.00;99.90
23873;DHT22;42884;50.718;4.630;2023-01-10T11:20:34;7.90;99.90
23873;DHT22;42884;50.718;4.630;2023-01-10T11:23:00;7.90;99.90
23873;DHT22;42884;50.718;4.630;2023-01-10T11:25:26;7.90;99.90
23873;DHT22;42884;50.718;4.630;2023-01-10T11:27:53;7.90;99.90
23873;DHT22;42884;50.718;4.630;2023-01-10T11:32:54;8.00;99.90
23873;DHT22;42884;50.718;4.630;2023-01-10T11:35:25;8.00;99.90
23873;DHT22;42884;50.718;4.630;2023-01-10T11:38:17;8.00;99.90
23873;DHT22;42884;50.718;4.630;2023-01-10T11:40:53;8.00;99.90
23873;DHT22;42884;50.718;4.630;2023-01-10T11:43:24;8.00;99.90
23873;DHT22;42884;50.718;4.630;2023-01-10T11:45:58;8.00;99.90
23873;DHT22;42884;50.718;4.630;2023-01-10T11:48:27;8.00;99.90
23873;DHT22;42884;50.718;4.630;2023-01-10T11:50:56;8.10;99.90
23873;DHT22;42884;50.718;4.630;2023-01-10T11:53:40;8.30;99.90
23873;DHT22;42884;50.718;4.630;2023-01-10T11:56:10;8.30;99.90
23873;DHT22;42884;50.718;4.630;2023-01-10T11:58:37;8.30;99.90
23873;DHT22;42884;50.718;4.630;2023-01-10T12:01:04;8.30;99.90
23873;DHT22;42884;50.718;4.630;2023-01-10T12:03:31;8.30;99.90
23873;DHT22;42884;50.718;4.630;2023-01-10T12:06:00;8.40;99.90
23873;DHT22;42884;50.718;4.630;2023-01-10T12:08:29;8.30;99.90
23873;DHT22;42884;50.718;4.630;2023-01-10T12:13:28;8.50;99.90
23873;DHT22;42884;50.718;4.630;2023-01-10T12:16:16;8.60;99.90
23873;DHT22;42884;50.718;4.630;2023-01-10T12:18:42;8.60;99.90
23873;DHT22;42884;50.718;4.630;2023-01-10T12:21:07;8.70;99.90
23873;DHT22;42884;50.718;4.630;2023-01-10T12:23:34;8.70;99.90
23873;DHT22;42884;50.718;4.630;2023-01-10T12:26:06;8.60;99.90
23873;DHT22;42884;50.718;4.630;2023-01-10T12:28:32;8.60;99.90
23873;DHT22;42884;50.718;4.630;2023-01-10T12:30:58;8.50;99.90
23873;DHT22;42884;50.718;4.630;2023-01-10T12:33:29;8.50;99.90
23873;DHT22;42884;50.718;4.630;2023-01-10T12:41:09;8.60;99.90
23873;DHT22;42884;50.718;4.630;2023-01-10T12:43:58;8.60;99.90
23873;DHT22;42884;50.718;4.630;2023-01-10T12:49:12;8.50;99.90
23873;DHT22;42884;50.718;4.630;2023-01-10T12:51:41;8.50;99.90
23873;DHT22;42884;50.718;4.630;2023-01-10T12:54:13;8.50;99.90
23873;DHT22;42884;50.718;4.630;2023-01-10T12:56:40;8.50;99.90
23873;DHT22;42884;50.718;4.630;2023-01-10T12:59:24;8.50;99.90
23873;DHT22;42884;50.718;4.630;2023-01-10T13:01:53;8.40;99.90
23873;DHT22;42884;50.718;4.630;2023-01-10T13:04:21;8.30;99.90
23873;DHT22;42884;50.718;4.630;2023-01-10T13:06:48;8.30;99.90
23873;DHT22;42884;50.718;4.630;2023-01-10T13:09:27;8.20;99.90
23873;DHT22;42884;50.718;4.630;2023-01-10T13:12:06;8.30;99.90
23873;DHT22;42884;50.718;4.630;2023-01-10T13:14:44;8.20;99.90
23873;DHT22;42884;50.718;4.630;2023-01-10T13:22:40;8.20;99.90
23873;DHT22;42884;50.718;4.630;2023-01-10T13:25:17;8.10;99.90
23873;DHT22;42884;50.718;4.630;2023-01-10T13:27:43;8.20;99.90
23873;DHT22;42884;50.718;4.630;2023-01-10T13:30:30;8.00;99.90
23873;DHT22;42884;50.718;4.630;2023-01-10T13:33:04;7.90;99.90
23873;DHT22;42884;50.718;4.630;2023-01-10T13:35:40;7.80;99.90
23873;DHT22;42884;50.718;4.630;2023-01-10T13:38:13;7.90;99.90
23873;DHT22;42884;50.718;4.630;2023-01-10T13:40:40;7.90;99.90
23873;DHT22;42884;50.718;4.630;2023-01-10T13:48:39;8.00;99.90
23873;DHT22;42884;50.718;4.630;2023-01-10T13:51:11;8.10;99.90
23873;DHT22;42884;50.718;4.630;2023-01-10T13:53:49;8.00;99.90
23873;DHT22;42884;50.718;4.630;2023-01-10T13:58:53;7.80;99.90
23873;DHT22;42884;50.718;4.630;2023-01-10T14:01:37;7.70;99.90
23873;DHT22;42884;50.718;4.630;2023-01-10T14:07:12;7.60;99.90
23873;DHT22;42884;50.718;4.630;2023-01-10T14:12:00;7.60;99.90
23873;DHT22;42884;50.718;4.630;2023-01-10T14:14:31;7.60;99.90
23873;DHT22;42884;50.718;4.630;2023-01-10T14:17:09;7.50;99.90
23873;DHT22;42884;50.718;4.630;2023-01-10T14:19:35;7.50;99.90
23873;DHT22;42884;50.718;4.630;2023-01-10T14:22:01;7.50;99.90
23873;DHT22;42884;50.718;4.630;2023-01-10T14:24:28;7.50;99.90
23873;DHT22;42884;50.718;4.630;2023-01-10T14:26:57;7.40;99.90
23873;DHT22;42884;50.718;4.630;2023-01-10T14:29:23;7.30;99.90
23873;DHT22;42884;50.718;4.630;2023-01-10T14:31:52;7.30;99.90
23873;DHT22;42884;50.718;4.630;2023-01-10T14:34:23;7.20;99.90
23873;DHT22;42884;50.718;4.630;2023-01-10T14:37:05;7.20;99.90
23873;DHT22;42884;50.718;4.630;2023-01-10T14:39:31;7.20;99.90
23873;DHT22;42884;50.718;4.630;2023-01-10T14:41:58;7.10;99.90
23873;DHT22;42884;50.718;4.630;2023-01-10T14:44:27;7.10;99.90
23873;DHT22;42884;50.718;4.630;2023-01-10T14:46:54;7.10;99.90
23873;DHT22;42884;50.718;4.630;2023-01-10T14:49:25;7.10;99.90
23873;DHT22;42884;50.718;4.630;2023-01-10T14:52:10;7.30;99.90
23873;DHT22;42884;50.718;4.630;2023-01-10T14:54:36;7.20;99.90
23873;DHT22;42884;50.718;4.630;2023-01-10T14:57:02;7.10;99.90
23873;DHT22;42884;50.718;4.630;2023-01-10T14:59:29;7.10;99.90
23873;DHT22;42884;50.718;4.630;2023-01-10T15:01:56;7.10;99.90
23873;DHT22;42884;50.718;4.630;2023-01-10T15:04:23;7.20;99.90
23873;DHT22;42884;50.718;4.630;2023-01-10T15:06:50;7.20;99.90
23873;DHT22;42884;50.718;4.630;2023-01-10T15:09:16;7.20;99.90
23873;DHT22;42884;50.718;4.630;2023-01-10T15:11:42;7.20;99.90
23873;DHT22;42884;50.718;4.630;2023-01-10T15:14:08;7.30;99.90
23873;DHT22;42884;50.718;4.630;2023-01-10T15:16:35;7.30;99.90
23873;DHT22;42884;50.718;4.630;2023-01-10T15:19:01;7.30;99.90
23873;DHT22;42884;50.718;4.630;2023-01-10T15:21:27;7.30;99.90
23873;DHT22;42884;50.718;4.630;2023-01-10T15:23:52;7.40;99.90
23873;DHT22;42884;50.718;4.630;2023-01-10T15:26:19;7.40;99.90
23873;DHT22;42884;50.718;4.630;2023-01-10T15:28:50;7.40;99.90
23873;DHT22;42884;50.718;4.630;2023-01-10T15:31:26;7.40;99.90
23873;DHT22;42884;50.718;4.630;2023-01-10T15:33:53;7.40;99.90
23873;DHT22;42884;50.718;4.630;2023-01-10T15:36:22;7.40;99.90
23873;DHT22;42884;50.718;4.630;2023-01-10T15:38:49;7.30;99.90
23873;DHT22;42884;50.718;4.630;2023-01-10T15:41:18;7.30;99.90
23873;DHT22;42884;50.718;4.630;2023-01-10T15:43:44;7.20;99.90
23873;DHT22;42884;50.718;4.630;2023-01-10T15:46:20;7.30;99.90
23873;DHT22;42884;50.718;4.630;2023-01-10T15:48:56;7.30;99.90
23873;DHT22;42884;50.718;4.630;2023-01-10T15:51:32;7.30;99.90
23873;DHT22;42884;50.718;4.630;2023-01-10T15:56:49;7.30;99.90
23873;DHT22;42884;50.718;4.630;2023-01-10T15:59:25;7.30;99.90
23873;DHT22;42884;50.718;4.630;2023-01-10T16:02:28;7.30;99.90
23873;DHT22;42884;50.718;4.630;2023-01-10T16:04:46;7.30;99.90
23873;DHT22;42884;50.718;4.630;2023-01-10T16:09:37;7.30;99.90
23873;DHT22;42884;50.718;4.630;2023-01-10T16:12:04;7.30;99.90
23873;DHT22;42884;50.718;4.630;2023-01-10T16:14:48;7.30;99.90
23873;DHT22;42884;50.718;4.630;2023-01-10T16:17:13;7.40;99.90
23873;DHT22;42884;50.718;4.630;2023-01-10T16:19:39;7.40;99.90
23873;DHT22;42884;50.718;4.630;2023-01-10T16:22:05;7.40;99.90
23873;DHT22;42884;50.718;4.630;2023-01-10T16:24:32;7.40;99.90
23873;DHT22;42884;50.718;4.630;2023-01-10T16:26:58;7.40;99.90
23873;DHT22;42884;50.718;4.630;2023-01-10T16:29:27;7.40;99.90
23873;DHT22;42884;50.718;4.630;2023-01-10T16:31:53;7.50;99.90
23873;DHT22;42884;50.718;4.630;2023-01-10T16:34:18;7.40;99.90
23873;DHT22;42884;50.718;4.630;2023-01-10T16:36:44;7.50;99.90
23873;DHT22;42884;50.718;4.630;2023-01-10T16:39:20;7.50;99.90
23873;DHT22;42884;50.718;4.630;2023-01-10T16:41:46;7.50;99.90
23873;DHT22;42884;50.718;4.630;2023-01-10T16:44:30;7.60;99.90
23873;DHT22;42884;50.718;4.630;2023-01-10T16:46:56;7.70;99.90
23873;DHT22;42884;50.718;4.630;2023-01-10T16:49:22;7.70;99.90
23873;DHT22;42884;50.718;4.630;2023-01-10T16:51:48;7.70;99.90
23873;DHT22;42884;50.718;4.630;2023-01-10T16:54:14;7.70;99.90
23873;DHT22;42884;50.718;4.630;2023-01-10T16:56:40;7.80;99.90
23873;DHT22;42884;50.718;4.630;2023-01-10T16:59:06;7.70;99.90
23873;DHT22;42884;50.718;4.630;2023-01-10T17:01:36;7.80;99.90
23873;DHT22;42884;50.718;4.630;2023-01-10T17:04:05;7.80;99.90
23873;DHT22;42884;50.718;4.630;2023-01-10T17:06:31;7.90;99.90
23873;DHT22;42884;50.718;4.630;2023-01-10T17:08:57;8.00;99.90
23873;DHT22;42884;50.718;4.630;2023-01-10T17:11:30;8.00;99.90
23873;DHT22;42884;50.718;4.630;2023-01-10T17:13:56;8.10;99.90
23873;DHT22;42884;50.718;4.630;2023-01-10T17:16:22;8.00;99.90
23873;DHT22;42884;50.718;4.630;2023-01-10T17:18:48;8.00;99.90
23873;DHT22;42884;50.718;4.630;2023-01-10T17:21:15;8.10;99.90
23873;DHT22;42884;50.718;4.630;2023-01-10T17:23:41;8.10;99.90
23873;DHT22;42884;50.718;4.630;2023-01-10T17:26:06;8.20;99.90
23873;DHT22;42884;50.718;4.630;2023-01-10T17:28:32;8.30;99.90
23873;DHT22;42884;50.718;4.630;2023-01-10T17:30:58;8.30;99.90
23873;DHT22;42884;50.718;4.630;2023-01-10T17:33:24;8.40;99.90
23873;DHT22;42884;50.718;4.630;2023-01-10T17:35:51;8.40;99.90
23873;DHT22;42884;50.718;4.630;2023-01-10T17:38:17;8.30;99.90
23873;DHT22;42884;50.718;4.630;2023-01-10T17:40:43;8.30;99.90
23873;DHT22;42884;50.718;4.630;2023-01-10T17:43:09;8.40;99.90
23873;DHT22;42884;50.718;4.630;2023-01-10T17:45:42;8.40;99.90
23873;DHT22;42884;50.718;4.630;2023-01-10T17:48:08;8.40;99.90